createdAt,value
2023-01-12T00:02:01.925Z,5.75
2023-01-12T00:04:30.861Z,4.97
2023-01-12T00:06:58.693Z,5.97
2023-01-12T00:09:28.010Z,5.50
2023-01-12T00:11:54.702Z,4.88
2023-01-12T00:14:23.505Z,5.18
2023-01-12T00:16:52.314Z,4.88
2023-01-12T00:19:25.783Z,5.13
2023-01-12T00:22:11.835Z,5.00
2023-01-12T00:24:44.848Z,4.78
2023-01-12T00:27:19.850Z,4.88
2023-01-12T00:29:49.735Z,4.60
2023-01-12T00:32:18.998Z,5.68
2023-01-12T00:34:45.810Z,4.78
2023-01-12T00:37:15.308Z,5.82
2023-01-12T00:39:53.167Z,4.70
2023-01-12T00:42:42.063Z,5.70
2023-01-12T00:45:21.829Z,5.72
2023-01-12T00:47:48.525Z,5.07
2023-01-12T00:50:20.059Z,5.38
2023-01-12T00:52:46.614Z,5.55
2023-01-12T00:55:15.419Z,4.57
2023-01-12T00:57:44.562Z,5.05
2023-01-12T01:00:16.685Z,5.75
2023-01-12T01:02:48.066Z,5.38
2023-01-12T01:05:14.963Z,5.18
2023-01-12T01:07:41.544Z,5.07
2023-01-12T01:10:08.759Z,5.35
2023-01-12T01:12:35.457Z,5.00
2023-01-12T01:15:02.143Z,5.15
2023-01-12T01:17:28.967Z,7.63
2023-01-12T01:19:55.554Z,9.38
2023-01-12T01:22:22.096Z,8.07
2023-01-12T01:24:50.878Z,5.90
2023-01-12T01:27:19.889Z,5.18
2023-01-12T01:29:49.202Z,5.85
2023-01-12T01:34:47.851Z,6.53
2023-01-12T01:37:16.913Z,6.65
2023-01-12T01:39:45.666Z,6.45
2023-01-12T01:42:28.298Z,6.55
2023-01-12T01:44:57.865Z,6.43
2023-01-12T01:50:06.006Z,7.15
2023-01-12T01:52:41.787Z,5.95
2023-01-12T01:55:14.067Z,6.32
2023-01-12T01:57:52.896Z,6.50
2023-01-12T02:00:19.612Z,5.78
2023-01-12T02:02:48.102Z,6.43
2023-01-12T02:05:22.558Z,6.97
2023-01-12T02:07:50.713Z,7.15
2023-01-12T02:10:18.114Z,8.80
2023-01-12T02:13:04.260Z,7.95
2023-01-12T02:15:57.904Z,8.77
2023-01-12T02:18:31.738Z,8.07
2023-01-12T02:21:12.584Z,7.93
2023-01-12T02:24:30.227Z,7.70
2023-01-12T02:27:01.893Z,8.60
2023-01-12T02:29:42.974Z,11.55
2023-01-12T02:32:48.558Z,10.88
2023-01-12T02:35:33.459Z,11.88
2023-01-12T02:38:05.916Z,11.13
2023-01-12T02:41:00.177Z,12.27
2023-01-12T02:43:34.405Z,11.13
2023-01-12T02:46:19.488Z,12.13
2023-01-12T02:49:08.070Z,11.88
2023-01-12T02:51:43.499Z,11.20
2023-01-12T02:54:18.850Z,11.48
2023-01-12T02:56:51.671Z,10.40
2023-01-12T02:59:30.216Z,10.52
2023-01-12T03:02:22.718Z,9.48
2023-01-12T03:04:49.373Z,10.55
2023-01-12T03:07:27.618Z,10.52
2023-01-12T03:10:09.005Z,9.90
2023-01-12T03:12:40.007Z,10.85
2023-01-12T03:15:11.547Z,10.55
2023-01-12T03:17:49.127Z,12.25
2023-01-12T03:20:22.568Z,12.35
2023-01-12T03:22:51.898Z,11.63
2023-01-12T03:27:52.855Z,9.88
2023-01-12T03:30:30.163Z,10.60
2023-01-12T03:32:59.279Z,10.25
2023-01-12T03:35:30.396Z,11.13
2023-01-12T03:38:02.356Z,10.00
2023-01-12T03:40:56.352Z,10.48
2023-01-12T03:46:09.813Z,9.18
2023-01-12T03:49:06.210Z,10.02
2023-01-12T03:51:40.415Z,9.15
2023-01-12T03:54:11.495Z,9.70
2023-01-12T03:56:39.796Z,9.63
2023-01-12T03:59:06.650Z,9.95
2023-01-12T04:01:33.353Z,10.00
2023-01-12T04:04:00.045Z,10.15
2023-01-12T04:06:27.045Z,8.90
2023-01-12T04:08:53.637Z,9.65
2023-01-12T04:11:41.095Z,9.40
2023-01-12T04:14:07.644Z,9.93
2023-01-12T04:16:36.806Z,8.82
2023-01-12T04:19:03.396Z,9.80
2023-01-12T04:21:51.173Z,9.35
2023-01-12T04:26:46.955Z,8.27
2023-01-12T04:29:13.799Z,9.48
2023-01-12T04:31:40.466Z,8.18
2023-01-12T04:34:09.278Z,9.10
2023-01-12T04:36:35.866Z,8.68
2023-01-12T04:39:02.733Z,8.85
2023-01-12T04:41:29.239Z,9.35
2023-01-12T04:43:58.083Z,9.43
2023-01-12T04:46:24.987Z,9.35
2023-01-12T04:48:51.647Z,9.68
2023-01-12T04:51:18.248Z,9.98
2023-01-12T04:53:44.929Z,8.80
2023-01-12T04:56:11.490Z,9.77
2023-01-12T04:58:38.076Z,9.43
2023-01-12T05:01:22.510Z,9.38
2023-01-12T05:03:56.043Z,9.32
2023-01-12T05:06:27.618Z,9.43
2023-01-12T05:09:12.828Z,9.10
2023-01-12T05:11:39.550Z,9.50
2023-01-12T05:14:08.588Z,9.18
2023-01-12T05:16:35.224Z,9.77
2023-01-12T05:19:01.799Z,9.65
2023-01-12T05:21:30.581Z,9.85
2023-01-12T05:23:57.162Z,10.30
2023-01-12T05:26:26.044Z,10.13
2023-01-12T05:28:55.340Z,8.98
2023-01-12T05:33:50.696Z,8.90
2023-01-12T05:36:17.742Z,9.07
2023-01-12T05:38:44.351Z,9.48
2023-01-12T05:41:13.173Z,9.93
2023-01-12T05:43:52.455Z,9.13
2023-01-12T05:46:23.360Z,10.25
2023-01-12T05:48:55.676Z,9.55
2023-01-12T05:51:23.427Z,10.98
2023-01-12T05:53:50.078Z,10.57
2023-01-12T05:56:25.872Z,10.32
2023-01-12T05:58:59.630Z,9.88
2023-01-12T06:01:30.009Z,9.45
2023-01-12T06:04:01.408Z,8.68
2023-01-12T06:06:31.448Z,8.98
2023-01-12T06:08:59.473Z,8.57
2023-01-12T06:11:47.124Z,8.00
2023-01-12T06:14:14.135Z,9.10
2023-01-12T06:16:42.804Z,9.80
2023-01-12T06:19:12.577Z,15.38
2023-01-12T06:21:44.131Z,13.20
2023-01-12T06:24:13.453Z,11.15
2023-01-12T06:29:16.625Z,10.05
2023-01-12T06:31:48.478Z,9.90
2023-01-12T06:34:15.063Z,10.07
2023-01-12T06:36:44.211Z,9.43
2023-01-12T06:39:14.052Z,10.13
2023-01-12T06:41:59.149Z,10.57
2023-01-12T06:44:25.669Z,9.63
2023-01-12T06:46:56.985Z,9.18
2023-01-12T06:49:23.550Z,9.85
2023-01-12T06:51:51.548Z,9.32
2023-01-12T06:54:18.799Z,10.57
2023-01-12T06:56:48.055Z,9.00
2023-01-12T06:59:16.852Z,8.73
2023-01-12T07:01:43.559Z,9.82
2023-01-12T07:04:13.225Z,9.60
2023-01-12T07:06:39.800Z,9.32
2023-01-12T07:09:06.783Z,9.63
2023-01-12T07:11:33.582Z,9.27
2023-01-12T07:14:00.297Z,9.75
2023-01-12T07:16:29.891Z,10.00
2023-01-12T07:18:56.432Z,10.30
2023-01-12T07:21:23.067Z,9.65
2023-01-12T07:23:51.876Z,8.68
2023-01-12T07:26:21.149Z,9.10
2023-01-12T07:28:47.662Z,9.30
2023-01-12T07:31:19.590Z,10.10
2023-01-12T07:33:46.240Z,9.45
2023-01-12T07:36:13.366Z,9.90
2023-01-12T07:38:44.736Z,9.20
2023-01-12T07:41:31.335Z,9.32
2023-01-12T07:43:57.989Z,8.23
2023-01-12T07:46:25.276Z,8.20
2023-01-12T07:48:54.073Z,9.13
2023-01-12T07:51:20.638Z,9.30
2023-01-12T07:53:50.268Z,9.65
2023-01-12T07:56:21.355Z,10.05
2023-01-12T07:58:50.517Z,9.98
2023-01-12T08:30:24.161Z,13.18
2023-01-12T08:32:53.241Z,11.73
2023-01-12T08:35:34.995Z,12.43
2023-01-12T08:38:01.660Z,13.25
2023-01-12T08:40:58.727Z,10.80
2023-01-12T08:43:44.015Z,12.15
2023-01-12T08:46:13.043Z,13.63
2023-01-12T08:48:39.940Z,13.93
2023-01-12T08:51:14.031Z,12.75
2023-01-12T08:53:40.819Z,11.35
2023-01-12T08:56:07.640Z,12.95
2023-01-12T08:58:34.419Z,12.60
2023-01-12T09:01:12.764Z,12.52
2023-01-12T09:03:40.148Z,12.88
2023-01-12T09:06:26.305Z,12.13
2023-01-12T09:09:20.111Z,12.80
2023-01-12T09:11:47.179Z,12.02
2023-01-12T09:14:15.437Z,12.55
2023-01-12T09:16:44.803Z,11.43
2023-01-12T09:19:11.610Z,13.43
2023-01-12T09:21:42.822Z,13.85
2023-01-12T09:24:15.448Z,12.20
2023-01-12T09:26:44.299Z,11.88
2023-01-12T09:29:14.256Z,12.15
2023-01-12T09:31:43.215Z,12.25
2023-01-12T09:34:17.752Z,12.88
2023-01-12T09:36:44.952Z,12.63
2023-01-12T09:39:26.840Z,11.95
2023-01-12T09:42:16.465Z,12.60
2023-01-12T09:45:05.101Z,13.25
2023-01-12T09:47:56.437Z,12.88
2023-01-12T09:50:31.649Z,11.50
2023-01-12T09:53:03.164Z,12.02
2023-01-12T09:56:03.052Z,10.65
2023-01-12T09:58:57.104Z,11.18
2023-01-12T10:01:30.430Z,10.27
2023-01-12T10:04:01.651Z,9.85
2023-01-12T10:06:29.070Z,10.52
2023-01-12T10:08:56.731Z,10.13
2023-01-12T10:11:46.688Z,9.98
2023-01-12T10:14:39.468Z,11.32
2023-01-12T10:17:38.686Z,10.95
2023-01-12T10:20:11.352Z,10.93
2023-01-12T10:22:43.939Z,10.50
2023-01-12T10:25:48.644Z,9.90
2023-01-12T10:28:19.605Z,10.20
2023-01-12T10:30:46.171Z,10.10
2023-01-12T10:33:18.513Z,9.35
2023-01-12T10:35:59.216Z,8.63
2023-01-12T10:38:45.990Z,9.10
2023-01-12T10:41:28.704Z,7.60
2023-01-12T10:43:58.151Z,7.47
2023-01-12T10:46:31.656Z,7.93
2023-01-12T10:49:20.595Z,9.05
2023-01-12T10:51:52.812Z,9.05
2023-01-12T10:54:25.587Z,9.55
2023-01-12T10:57:17.838Z,8.65
2023-01-12T10:59:53.083Z,6.78
2023-01-12T11:04:54.932Z,4.97
2023-01-12T11:07:28.971Z,4.57
2023-01-12T11:10:02.878Z,4.07
2023-01-12T11:12:30.072Z,5.88
2023-01-12T11:15:21.331Z,7.15
2023-01-12T11:18:07.732Z,6.43
2023-01-12T11:20:59.474Z,6.78
2023-01-12T11:23:34.063Z,12.50
2023-01-12T11:26:03.494Z,4.75
2023-01-12T11:28:45.339Z,3.70
2023-01-12T11:31:18.669Z,3.50
2023-01-12T11:33:50.936Z,5.95
2023-01-12T11:36:25.325Z,7.70
2023-01-12T11:39:04.048Z,8.13
2023-01-12T11:41:30.984Z,7.90
2023-01-12T11:44:24.855Z,10.05
2023-01-12T11:47:03.489Z,7.65
2023-01-12T11:49:42.429Z,6.90
2023-01-12T11:52:11.623Z,5.57
2023-01-12T11:57:28.351Z,6.22
2023-01-12T12:00:02.302Z,7.00
2023-01-12T12:02:37.530Z,7.70
2023-01-12T12:08:13.722Z,7.40
2023-01-12T12:11:01.875Z,6.70
2023-01-12T12:13:56.314Z,6.50
2023-01-12T12:17:01.268Z,6.25
2023-01-12T12:19:44.890Z,4.30
2023-01-12T12:22:38.849Z,4.30
2023-01-12T12:25:05.359Z,4.28
2023-01-12T12:27:31.904Z,4.63
2023-01-12T12:30:31.329Z,8.65
2023-01-12T12:33:05.742Z,8.27
2023-01-12T12:35:47.259Z,8.80
2023-01-12T12:38:41.613Z,8.93
2023-01-12T12:41:54.939Z,8.60
2023-01-12T12:44:58.250Z,8.32
2023-01-12T12:47:30.523Z,8.52
2023-01-12T12:50:00.221Z,9.05
2023-01-12T12:52:39.660Z,8.43
2023-01-12T12:55:10.363Z,6.65
2023-01-12T12:58:04.386Z,6.95
2023-01-12T13:00:42.609Z,5.63
2023-01-12T13:03:10.493Z,6.38
2023-01-12T13:05:40.232Z,6.72
2023-01-12T13:08:18.143Z,5.75
2023-01-12T13:10:51.831Z,7.45
2023-01-12T13:13:31.988Z,6.60
2023-01-12T13:16:20.138Z,5.88
2023-01-12T13:18:51.938Z,6.70
2023-01-12T13:21:42.860Z,5.18
2023-01-12T13:24:09.471Z,5.38
2023-01-12T13:26:36.038Z,4.28
2023-01-12T13:29:29.562Z,4.45
2023-01-12T13:32:14.835Z,4.22
2023-01-12T13:34:46.371Z,4.55
2023-01-12T13:37:45.711Z,5.03
2023-01-12T13:40:29.439Z,4.82
2023-01-12T13:43:15.099Z,4.53
2023-01-12T13:46:02.264Z,4.20
2023-01-12T13:48:32.647Z,4.45
2023-01-12T13:51:05.292Z,4.78
2023-01-12T13:53:34.560Z,4.53
2023-01-12T13:56:03.741Z,4.78
2023-01-12T14:01:19.147Z,6.68
2023-01-12T14:03:59.013Z,6.53
2023-01-12T14:06:44.434Z,7.20
2023-01-12T14:09:15.713Z,7.00
2023-01-12T14:12:00.549Z,9.95
2023-01-12T14:15:02.244Z,6.88
2023-01-12T14:17:53.211Z,7.22
2023-01-12T14:20:28.492Z,7.57
2023-01-12T14:23:29.006Z,7.13
2023-01-12T14:26:11.806Z,7.10
2023-01-12T14:28:43.819Z,6.55
2023-01-12T14:31:41.870Z,6.22
2023-01-12T14:34:19.862Z,7.40
2023-01-12T14:36:46.850Z,7.30
2023-01-12T14:39:20.677Z,7.78
2023-01-12T14:42:09.870Z,7.57
2023-01-12T14:44:57.732Z,7.88
2023-01-12T14:47:35.086Z,8.07
2023-01-12T14:50:19.245Z,6.22
2023-01-12T14:52:47.484Z,6.95
2023-01-12T14:55:39.302Z,6.15
2023-01-12T14:58:19.168Z,5.45
2023-01-12T15:00:48.154Z,5.75
2023-01-12T15:03:35.309Z,6.03
2023-01-12T15:06:14.777Z,9.18
2023-01-12T15:08:53.249Z,10.10
2023-01-12T15:11:30.448Z,7.30
2023-01-12T15:14:01.401Z,7.88
2023-01-12T15:16:46.630Z,6.30
2023-01-12T15:19:32.045Z,6.72
2023-01-12T15:22:20.213Z,6.75
2023-01-12T15:25:04.998Z,6.82
2023-01-12T15:27:35.172Z,7.22
2023-01-12T15:30:01.871Z,6.60
2023-01-12T15:32:47.500Z,6.57
2023-01-12T15:35:34.120Z,7.05
2023-01-12T15:38:00.991Z,6.55
2023-01-12T15:40:30.552Z,6.68
2023-01-12T15:42:59.197Z,6.53
2023-01-12T15:45:34.700Z,6.45
2023-01-12T15:48:02.652Z,6.43
2023-01-12T15:50:36.666Z,4.97
2023-01-12T15:53:03.595Z,5.13
2023-01-12T15:55:31.455Z,4.47
2023-01-12T15:58:02.944Z,5.00
2023-01-12T16:00:30.023Z,4.13
2023-01-12T16:02:59.189Z,4.65
2023-01-12T16:05:27.992Z,4.80
2023-01-12T16:07:54.701Z,5.47
2023-01-12T16:10:21.577Z,5.28
2023-01-12T16:12:48.413Z,4.85
2023-01-12T16:15:23.339Z,5.20
2023-01-12T16:17:52.696Z,6.43
2023-01-12T16:20:20.402Z,6.43
2023-01-12T16:22:51.942Z,5.65
2023-01-12T16:25:20.868Z,6.35
2023-01-12T16:27:47.561Z,6.28
2023-01-12T16:30:15.977Z,5.90
2023-01-12T16:32:46.970Z,5.78
2023-01-12T16:35:16.716Z,5.85
2023-01-12T16:37:45.560Z,6.22
2023-01-12T16:40:14.883Z,5.47
2023-01-12T16:45:09.464Z,6.72
2023-01-12T16:47:36.149Z,6.03
2023-01-12T16:50:07.743Z,6.18
2023-01-12T16:52:36.839Z,6.00
2023-01-12T16:55:41.988Z,6.07
2023-01-12T16:58:11.949Z,6.38
2023-01-12T17:00:38.876Z,6.38
2023-01-12T17:03:05.764Z,7.20
2023-01-12T17:05:39.115Z,7.47
2023-01-12T17:08:05.847Z,7.55
2023-01-12T17:10:34.222Z,7.63
2023-01-12T17:13:03.341Z,6.97
2023-01-12T17:15:35.551Z,7.90
2023-01-12T17:18:02.501Z,7.13
2023-01-12T17:20:34.400Z,7.43
2023-01-12T17:23:01.145Z,7.22
2023-01-12T17:25:27.939Z,8.45
2023-01-12T17:27:57.992Z,7.50
2023-01-12T17:30:24.588Z,7.72
2023-01-12T17:32:51.232Z,7.38
2023-01-12T17:35:17.857Z,7.97
2023-01-12T17:37:44.545Z,9.15
2023-01-12T17:40:14.010Z,9.07
2023-01-12T17:43:01.547Z,9.63
2023-01-12T17:45:28.336Z,8.32
2023-01-12T17:47:55.011Z,8.00
2023-01-12T17:50:21.655Z,7.63
2023-01-12T17:52:50.857Z,8.13
2023-01-12T17:55:17.498Z,7.80
2023-01-12T17:57:44.113Z,8.43
2023-01-12T18:28:50.057Z,7.38
2023-01-12T18:31:20.770Z,8.73
2023-01-12T18:33:49.146Z,9.52
2023-01-12T18:37:01.021Z,9.75
2023-01-12T18:39:27.643Z,9.23
2023-01-12T18:42:27.747Z,9.40
2023-01-12T18:44:54.317Z,8.88
2023-01-12T18:47:39.515Z,8.52
2023-01-12T18:50:32.320Z,10.45
2023-01-12T18:53:17.452Z,9.63
2023-01-12T18:55:44.040Z,9.75
2023-01-12T18:58:12.935Z,10.88
2023-01-12T19:00:42.116Z,11.80
2023-01-12T19:03:08.855Z,13.45
2023-01-12T19:05:58.039Z,15.60
2023-01-12T19:08:46.756Z,14.88
2023-01-12T19:11:15.084Z,16.70
2023-01-12T19:14:01.291Z,15.25
2023-01-12T19:16:46.925Z,16.17
2023-01-12T19:19:22.258Z,13.40
2023-01-12T19:22:07.254Z,15.57
2023-01-12T19:24:54.569Z,13.90
2023-01-12T19:27:41.890Z,14.65
2023-01-12T19:30:12.218Z,15.05
2023-01-12T19:32:38.755Z,15.43
2023-01-12T19:35:11.272Z,16.00
2023-01-12T19:37:39.002Z,13.70
2023-01-12T19:40:17.897Z,14.77
2023-01-12T19:43:02.724Z,15.65
2023-01-12T19:45:29.796Z,16.02
2023-01-12T19:47:56.661Z,15.73
2023-01-12T19:50:26.243Z,15.38
2023-01-12T19:52:55.188Z,15.80
2023-01-12T19:55:21.855Z,14.30
2023-01-12T19:57:54.539Z,13.20
2023-01-12T20:00:21.340Z,12.82
2023-01-12T20:02:48.258Z,11.40
2023-01-12T20:05:22.545Z,7.75
2023-01-12T20:07:53.746Z,6.65
2023-01-12T20:10:22.298Z,6.57
2023-01-12T20:12:51.352Z,6.72
2023-01-12T20:15:20.588Z,6.60
2023-01-12T20:17:50.088Z,5.70
2023-01-12T20:20:20.530Z,5.90
2023-01-12T20:22:50.905Z,6.43
2023-01-12T20:25:20.675Z,5.82
2023-01-12T20:27:53.345Z,6.38
2023-01-12T20:30:36.965Z,5.45
2023-01-12T20:33:04.878Z,5.60
2023-01-12T20:35:32.389Z,5.90
2023-01-12T20:37:58.974Z,5.43
2023-01-12T20:40:25.650Z,5.10
2023-01-12T20:42:52.257Z,5.15
2023-01-12T20:45:19.107Z,5.00
2023-01-12T20:47:45.827Z,5.88
2023-01-12T20:50:15.711Z,5.65
2023-01-12T20:52:42.269Z,5.00
2023-01-12T20:55:09.335Z,4.78
2023-01-12T20:57:40.884Z,4.40
2023-01-12T21:00:09.113Z,4.88
2023-01-12T21:02:35.905Z,5.65
2023-01-12T21:05:07.971Z,4.75
2023-01-12T21:07:34.626Z,5.45
2023-01-12T21:10:04.543Z,5.03
2023-01-12T21:12:36.758Z,6.13
2023-01-12T21:15:06.269Z,5.28
2023-01-12T21:17:39.024Z,4.97
2023-01-12T21:20:07.682Z,6.32
2023-01-12T21:22:34.789Z,7.35
2023-01-12T21:25:01.436Z,7.95
2023-01-12T21:27:30.421Z,7.15
2023-01-12T21:29:57.119Z,7.10
2023-01-12T21:32:28.485Z,8.07
2023-01-12T21:35:02.512Z,7.05
2023-01-12T21:37:32.056Z,7.55
2023-01-12T21:40:03.438Z,8.10
2023-01-12T21:42:48.755Z,8.13
2023-01-12T21:45:17.653Z,9.55
2023-01-12T21:47:46.431Z,8.98
2023-01-12T21:50:13.560Z,7.97
2023-01-12T21:52:41.609Z,8.73
2023-01-12T21:55:13.576Z,9.13
2023-01-12T21:57:41.890Z,10.43
2023-01-12T22:00:09.205Z,9.63
2023-01-12T22:02:38.101Z,11.27
2023-01-12T22:05:05.223Z,9.75
2023-01-12T22:07:36.612Z,11.70
2023-01-12T22:10:19.369Z,11.27
2023-01-12T22:12:56.965Z,11.05
2023-01-12T22:15:24.911Z,11.23
2023-01-12T22:17:55.925Z,10.80
2023-01-12T22:20:26.117Z,11.85
2023-01-12T22:22:53.278Z,11.27
2023-01-12T22:25:20.400Z,11.80
2023-01-12T22:27:47.313Z,11.13
2023-01-12T22:30:17.313Z,12.10
2023-01-12T22:32:44.073Z,12.48
2023-01-12T22:35:11.428Z,12.68
2023-01-12T22:37:43.721Z,12.90
2023-01-12T22:40:13.550Z,14.75
2023-01-12T22:42:58.748Z,14.43
2023-01-12T22:45:27.533Z,14.20
2023-01-12T22:47:57.054Z,14.07
2023-01-12T22:50:24.897Z,15.30
2023-01-12T22:52:55.088Z,14.60
2023-01-12T22:55:23.507Z,15.05
2023-01-12T22:57:53.476Z,14.48
2023-01-12T23:00:21.191Z,16.48
2023-01-12T23:03:00.344Z,14.32
2023-01-12T23:05:36.267Z,15.38
2023-01-12T23:08:08.789Z,13.38
2023-01-12T23:10:37.619Z,14.65
2023-01-12T23:13:17.644Z,15.20
2023-01-12T23:15:58.138Z,14.93
2023-01-12T23:18:30.762Z,15.63
2023-01-12T23:21:11.003Z,13.70
2023-01-12T23:23:44.443Z,12.90
2023-01-12T23:26:13.625Z,13.13
2023-01-12T23:28:46.099Z,13.77
2023-01-12T23:31:17.139Z,14.10
2023-01-12T23:33:46.351Z,14.45
2023-01-12T23:36:24.564Z,13.65
2023-01-12T23:38:59.520Z,15.43
2023-01-12T23:41:27.932Z,15.75
2023-01-12T23:43:59.423Z,16.55
2023-01-12T23:46:27.783Z,16.30
2023-01-12T23:48:56.468Z,14.55
2023-01-12T23:51:24.500Z,15.65
2023-01-12T23:53:57.579Z,17.20
2023-01-12T23:56:33.630Z,15.95
2023-01-12T23:59:04.109Z,15.50
